Time;durP1;ratioP1;P1;durP2;ratioP2;P2;SDS_P1;SDS_P2;PMS_P1;PMS_P2;Temp;Humidity;BMP_temperature;BMP_pressure;BME280_temperature;BME280_humidity;BME280_pressure;Samples;Min_cycle;Max_cycle;Signal;HPM_P1;HPM_P2
2022/02/22 00:00:17;;;;;;;18.43;3.80;;;;;;;5.07;99.66;100782.31;664873;29;3987;-82
2022/02/22 00:00:39;;;;;;;21.50;4.00;;;;;;;5.07;99.45;100787.50;665184;29;1363;-82
2022/02/22 00:00:59;;;;;;;21.20;3.85;;;;;;;4.99;99.49;100802.00;662692;29;1545;-83
2022/02/22 00:01:23;;;;;;;23.53;4.30;;;;;;;4.99;99.88;100786.47;664824;29;1217;-81
2022/02/22 00:01:44;;;;;;;25.98;4.82;;;;;;;5.09;99.37;100809.09;665191;29;4389;-82
2022/02/22 00:02:06;;;;;;;21.35;3.80;;;;;;;5.09;99.54;100808.25;666145;29;819;-83
2022/02/22 00:02:27;;;;;;;19.13;3.67;;;;;;;5.02;99.44;100815.03;668154;29;1262;-83
2022/02/22 00:02:48;;;;;;;18.57;3.40;;;;;;;4.99;99.77;100812.38;663320;29;3780;-83
2022/02/22 00:03:08;;;;;;;24.13;3.67;;;;;;;4.99;99.72;100807.19;664359;29;3973;-83
2022/02/22 00:03:31;;;;;;;22.55;4.07;;;;;;;5.03;99.71;100790.00;665198;29;1617;-83
2022/02/22 00:03:54;;;;;;;20.52;4.50;;;;;;;5.00;100.00;100806.34;664671;29;2681;-83
2022/02/22 00:04:14;;;;;;;19.45;4.30;;;;;;;4.96;100.00;100801.94;661847;29;1706;-83
2022/02/22 00:04:38;;;;;;;19.55;3.90;;;;;;;4.95;99.91;100775.16;662295;29;1037;-82
2022/02/22 00:05:01;;;;;;;21.20;3.67;;;;;;;4.91;100.00;100795.78;665679;29;4312;-83
2022/02/22 00:05:22;;;;;;;22.63;3.78;;;;;;;4.86;100.00;100807.78;667433;29;1907;-83
2022/02/22 00:05:57;;;;;;;20.92;3.67;;;;;;;4.83;100.00;100810.31;665249;29;4096;-83
2022/02/22 00:06:17;;;;;;;20.67;3.88;;;;;;;4.91;100.00;100786.28;661980;29;1689;-82
2022/02/22 00:06:38;;;;;;;18.85;4.00;;;;;;;4.92;100.00;100789.78;664661;29;1301;-83
2022/02/22 00:06:59;;;;;;;17.73;3.40;;;;;;;4.94;100.00;100796.75;662759;29;1028;-83
2022/02/22 00:07:19;;;;;;;20.73;3.92;;;;;;;5.07;99.62;100805.63;658926;29;1374;-84
2022/02/22 00:07:43;;;;;;;19.57;3.77;;;;;;;5.06;99.41;100782.28;664500;29;1286;-83
2022/02/22 00:08:06;;;;;;;15.48;3.88;;;;;;;5.02;99.91;100817.63;660329;29;4921;-83
2022/02/22 00:08:27;;;;;;;18.52;4.68;;;;;;;5.01;100.00;100794.25;660906;29;4097;-83
2022/02/22 00:08:47;;;;;;;21.80;4.17;;;;;;;4.98;99.44;100787.31;662015;29;1442;-82
2022/02/22 00:09:08;;;;;;;18.23;3.60;;;;;;;4.95;99.87;100785.50;663261;29;1192;-83
2022/02/22 00:09:29;;;;;;;17.73;3.60;;;;;;;4.90;99.91;100787.16;662789;29;1345;-82
2022/02/22 00:09:49;;;;;;;19.60;4.27;;;;;;;4.89;100.00;100813.03;662775;29;1221;-83
2022/02/22 00:10:11;;;;;;;22.55;4.30;;;;;;;4.93;100.00;100792.41;662421;29;1374;-82
2022/02/22 00:10:31;;;;;;;27.35;4.68;;;;;;;5.00;99.61;100796.00;666050;29;1576;-81
2022/02/22 00:10:52;;;;;;;25.07;4.13;;;;;;;4.94;98.52;100816.56;667172;29;4309;-83
2022/02/22 00:11:13;;;;;;;23.92;3.88;;;;;;;4.93;98.86;100804.50;665140;29;864;-82
2022/02/22 00:11:33;;;;;;;22.58;4.38;;;;;;;4.92;99.07;100800.16;667210;29;1582;-82
2022/02/22 00:11:53;;;;;;;21.83;4.17;;;;;;;5.00;99.46;100795.09;667717;29;1694;-83
2022/02/22 00:12:16;;;;;;;21.02;4.18;;;;;;;4.95;99.45;100797.59;665485;29;1187;-82
2022/02/22 00:12:37;;;;;;;17.55;3.63;;;;;;;5.06;99.38;100803.00;666878;29;1262;-82
2022/02/22 00:12:58;;;;;;;19.83;3.20;;;;;;;5.07;99.46;100802.19;665981;29;4691;-83
2022/02/22 00:13:21;;;;;;;19.37;3.70;;;;;;;5.05;99.41;100812.50;666386;29;2779;-85
2022/02/22 00:13:43;;;;;;;22.05;3.83;;;;;;;5.06;98.93;100796.09;665286;29;4370;-83
2022/02/22 00:14:04;;;;;;;24.17;4.43;;;;;;;5.08;98.68;100797.03;665704;29;4541;-82
2022/02/22 00:14:25;;;;;;;18.48;3.42;;;;;;;5.07;99.33;100797.84;664497;29;1640;-82
2022/02/22 00:14:45;;;;;;;19.07;3.67;;;;;;;5.07;99.16;100803.03;665247;29;3244;-83
2022/02/22 00:15:06;;;;;;;20.95;4.28;;;;;;;5.05;99.26;100791.78;665500;29;1350;-83
2022/02/22 00:15:27;;;;;;;21.35;3.83;;;;;;;5.07;99.38;100799.59;668766;29;1287;-83
2022/02/22 00:15:51;;;;;;;25.52;4.28;;;;;;;5.02;99.14;100802.06;666892;29;1502;-83
2022/02/22 00:16:11;;;;;;;23.10;4.00;;;;;;;4.99;98.95;100799.41;664183;29;1370;-81
2022/02/22 00:16:32;;;;;;;20.20;3.57;;;;;;;5.03;98.83;100798.63;666888;29;1086;-84
2022/02/22 00:16:55;;;;;;;17.33;3.50;;;;;;;5.07;99.33;100804.78;663535;29;4387;-83
2022/02/22 00:17:16;;;;;;;16.40;3.47;;;;;;;5.07;98.92;100800.44;667013;29;1451;-82
2022/02/22 00:17:39;;;;;;;19.05;3.67;;;;;;;5.09;98.97;100806.53;665664;29;1254;-81
2022/02/22 00:18:01;;;;;;;22.55;4.10;;;;;;;5.08;99.24;100796.13;663462;29;1517;-82
2022/02/22 00:18:22;;;;;;;19.00;3.70;;;;;;;5.14;99.32;100800.56;662901;29;1263;-82
2022/02/22 00:18:43;;;;;;;16.23;3.80;;;;;;;5.13;98.94;100798.84;659779;29;1259;-82
2022/02/22 00:19:03;;;;;;;18.90;3.93;;;;;;;5.16;98.35;100832.56;662817;29;1263;-84
2022/02/22 00:19:25;;;;;;;21.75;4.18;;;;;;;5.11;98.56;100820.41;663860;29;1056;-83
2022/02/22 00:19:46;;;;;;;22.85;3.85;;;;;;;5.06;98.88;100829.78;662059;29;4385;-82
2022/02/22 00:20:09;;;;;;;23.98;4.35;;;;;;;5.10;98.29;100831.59;661711;29;3744;-82
2022/02/22 00:20:29;;;;;;;24.08;4.30;;;;;;;5.09;98.49;100827.25;664065;29;1350;-82
2022/02/22 00:20:50;;;;;;;18.70;3.63;;;;;;;5.09;98.83;100798.75;662897;29;1470;-83
2022/02/22 00:21:12;;;;;;;22.48;3.67;;;;;;;5.17;98.42;100823.97;665633;29;1193;-84
2022/02/22 00:21:33;;;;;;;19.67;3.50;;;;;;;5.16;98.58;100811.84;665958;29;1035;-84
2022/02/22 00:21:54;;;;;;;17.88;3.53;;;;;;;5.20;98.38;100824.88;669268;29;815;-84
2022/02/22 00:22:15;;;;;;;20.73;3.70;;;;;;;5.19;98.19;100804.13;667833;29;1207;-83
2022/02/22 00:22:39;;;;;;;22.30;3.70;;;;;;;5.14;97.76;100795.38;669201;29;3692;-83
2022/02/22 00:23:02;;;;;;;19.67;3.80;;;;;;;5.10;98.42;100831.59;669755;29;4368;-84
2022/02/22 00:23:22;;;;;;;18.13;3.50;;;;;;;5.15;98.07;100807.50;671128;29;924;-83
2022/02/22 00:23:43;;;;;;;20.93;3.70;;;;;;;5.10;98.75;100818.63;669748;29;1306;-83
2022/02/22 00:24:06;;;;;;;23.10;4.22;;;;;;;5.06;98.71;100818.56;667142;29;1175;-83
2022/02/22 00:24:30;;;;;;;20.65;3.92;;;;;;;5.01;99.68;100800.34;663515;29;1472;-82
2022/02/22 00:24:53;;;;;;;20.88;3.80;;;;;;;4.96;99.76;100833.03;667062;29;1413;-83
2022/02/22 00:25:14;;;;;;;21.63;3.83;;;;;;;4.93;99.40;100820.03;664833;29;3567;-83
2022/02/22 00:25:35;;;;;;;18.15;3.50;;;;;;;4.99;99.43;100802.00;662149;29;3892;-82
2022/02/22 00:25:55;;;;;;;22.25;3.67;;;;;;;4.99;99.46;100807.19;665673;29;4368;-82
2022/02/22 00:26:19;;;;;;;20.70;3.67;;;;;;;5.01;99.52;100836.63;664774;29;795;-82
2022/02/22 00:26:40;;;;;;;19.98;3.25;;;;;;;4.97;99.22;100810.59;662766;29;1243;-82
2022/02/22 00:27:00;;;;;;;25.95;3.35;;;;;;;4.99;99.32;100827.06;662348;29;1395;-81
2022/02/22 00:27:21;;;;;;;22.75;3.55;;;;;;;4.99;99.91;100812.38;664984;29;911;-83
2022/02/22 00:27:43;;;;;;;17.70;3.57;;;;;;;5.01;99.67;100830.53;666747;29;1221;-82
2022/02/22 00:28:05;;;;;;;16.92;3.70;;;;;;;4.98;99.54;100828.75;664404;29;3890;-82
2022/02/22 00:28:32;;;;;;;21.33;3.88;;;;;;;5.07;99.46;100803.03;663976;29;3576;-82
2022/02/22 00:28:58;;;;;;;19.00;3.78;;;;;;;5.01;99.07;100828.84;666038;29;4386;-82
2022/02/22 00:29:19;;;;;;;23.02;3.90;;;;;;;5.03;99.01;100834.06;659181;29;1287;-82
2022/02/22 00:29:39;;;;;;;21.00;3.65;;;;;;;4.99;100.00;100829.66;659980;29;1313;-83
2022/02/22 00:30:00;;;;;;;21.33;4.23;;;;;;;5.00;99.65;100841.75;661559;29;1257;-83
2022/02/22 00:30:20;;;;;;;21.38;4.03;;;;;;;4.94;100.00;100821.75;662634;29;909;-83
2022/02/22 00:30:40;;;;;;;22.13;4.00;;;;;;;4.94;100.00;100834.72;661165;29;995;-83
2022/02/22 00:31:01;;;;;;;19.13;3.78;;;;;;;5.00;99.92;100821.00;662714;29;2501;-83
2022/02/22 00:31:22;;;;;;;18.07;3.93;;;;;;;4.98;99.62;100830.47;662257;29;1861;-82
2022/02/22 00:31:43;;;;;;;22.77;4.55;;;;;;;5.01;99.20;100836.63;661167;29;4376;-82
2022/02/22 00:32:04;;;;;;;19.55;3.92;;;;;;;4.98;98.83;100841.72;662894;29;954;-82
2022/02/22 00:32:24;;;;;;;22.73;4.60;;;;;;;4.98;98.83;100826.16;665326;29;1434;-82
2022/02/22 00:32:45;;;;;;;20.00;4.45;;;;;;;4.94;99.19;100842.50;658930;29;924;-82
2022/02/22 00:33:10;;;;;;;20.58;4.65;;;;;;;4.93;99.69;100827.81;661906;29;1378;-81
2022/02/22 00:33:30;;;;;;;21.98;4.30;;;;;;;5.00;99.54;100821.91;667826;29;1514;-82
2022/02/22 00:33:53;;;;;;;23.27;3.80;;;;;;;4.99;99.03;100858.16;666083;29;929;-82
2022/02/22 00:34:14;;;;;;;23.42;3.88;;;;;;;4.93;99.23;100823.50;664571;29;2337;-83
2022/02/22 00:34:34;;;;;;;22.35;3.90;;;;;;;4.87;99.49;100856.16;667011;29;1753;-82
2022/02/22 00:34:55;;;;;;;20.20;3.90;;;;;;;4.88;99.43;100858.78;663468;29;4372;-82
2022/02/22 00:35:15;;;;;;;24.13;3.95;;;;;;;4.87;99.08;100856.16;662072;29;1306;-83
2022/02/22 00:35:44;;;;;;;25.80;3.83;;;;;;;4.90;99.58;100830.31;664835;29;1257;-83
2022/02/22 00:36:04;;;;;;;21.52;4.45;;;;;;;4.88;99.22;100840.66;667496;29;837;-83
2022/02/22 00:36:25;;;;;;;17.52;4.07;;;;;;;4.86;99.98;100838.84;667616;29;1160;-83
2022/02/22 00:36:45;;;;;;;18.60;3.70;;;;;;;4.85;99.97;100840.59;665192;29;3279;-83
2022/02/22 00:37:06;;;;;;;18.95;3.65;;;;;;;4.84;99.91;100856.09;663350;29;2064;-83
2022/02/22 00:37:29;;;;;;;23.17;4.43;;;;;;;4.77;99.92;100855.94;661522;29;1978;-83
2022/02/22 00:37:50;;;;;;;20.05;3.60;;;;;;;4.73;99.91;100840.31;662331;29;4444;-82
2022/02/22 00:38:10;;;;;;;20.30;4.77;;;;;;;4.77;99.87;100863.72;663247;29;834;-83
2022/02/22 00:38:31;;;;;;;21.20;4.35;;;;;;;4.79;99.91;100848.25;662225;29;1287;-81
2022/02/22 00:38:51;;;;;;;21.17;3.67;;;;;;;4.82;100.00;100847.41;665228;29;997;-83
2022/02/22 00:39:12;;;;;;;20.40;3.47;;;;;;;4.78;100.00;100855.13;663789;29;1307;-83
2022/02/22 00:39:33;;;;;;;22.55;3.92;;;;;;;4.73;100.00;100861.91;664967;29;1239;-83
2022/02/22 00:39:54;;;;;;;23.40;4.22;;;;;;;4.76;100.00;100887.91;666269;29;4095;-83
2022/02/22 00:40:16;;;;;;;19.00;3.75;;;;;;;4.77;100.00;100876.66;664739;29;1783;-83
2022/02/22 00:40:37;;;;;;;21.15;4.15;;;;;;;4.82;100.00;100862.94;667185;29;1241;-82
2022/02/22 00:41:00;;;;;;;20.50;4.07;;;;;;;4.92;99.14;100854.53;666996;29;5950;-83
2022/02/22 00:41:26;;;;;;;21.25;4.25;;;;;;;4.91;98.87;100876.97;666091;29;1445;-82
2022/02/22 00:41:49;;;;;;;22.25;4.20;;;;;;;4.90;98.78;100876.94;665984;29;1196;-84
2022/02/22 00:42:10;;;;;;;23.65;3.60;;;;;;;4.90;99.53;100851.03;667820;29;1413;-82
2022/02/22 00:42:33;;;;;;;22.87;3.70;;;;;;;4.96;98.65;100877.09;665141;29;2384;-83
2022/02/22 00:42:53;;;;;;;21.10;3.78;;;;;;;4.89;99.53;100881.25;669103;29;1541;-83
2022/02/22 00:43:14;;;;;;;22.05;3.45;;;;;;;4.88;99.34;100873.47;667576;29;1933;-82
2022/02/22 00:43:34;;;;;;;24.35;4.05;;;;;;;4.94;99.32;100863.22;662458;29;1277;-83
2022/02/22 00:43:56;;;;;;;22.23;4.13;;;;;;;4.97;98.73;100877.94;657107;29;4354;-82
2022/02/22 00:44:16;;;;;;;19.13;4.20;;;;;;;5.02;98.55;100864.25;657466;30;886;-82
2022/02/22 00:44:37;;;;;;;21.60;3.60;;;;;;;5.01;97.97;100872.00;656638;29;1365;-83
2022/02/22 00:45:01;;;;;;;19.40;4.00;;;;;;;4.94;98.29;100878.75;662296;29;1216;-83
2022/02/22 00:45:25;;;;;;;20.75;3.90;;;;;;;4.92;98.49;100876.13;669030;29;2260;-81
2022/02/22 00:45:45;;;;;;;21.20;3.67;;;;;;;4.90;99.08;100851.03;670385;29;1815;-82
2022/02/22 00:46:09;;;;;;;21.35;3.53;;;;;;;4.89;98.79;100888.16;667743;29;1354;-82
2022/02/22 00:46:30;;;;;;;21.33;4.30;;;;;;;4.85;98.62;100883.75;663174;29;1253;-83
2022/02/22 00:46:50;;;;;;;20.17;4.20;;;;;;;4.95;98.52;100863.25;663667;29;4326;-84
2022/02/22 00:47:11;;;;;;;21.40;4.18;;;;;;;4.94;98.74;100852.84;667489;29;937;-82
2022/02/22 00:47:31;;;;;;;23.73;3.97;;;;;;;4.87;98.91;100850.97;666735;29;1515;-82
2022/02/22 00:47:55;;;;;;;24.37;3.83;;;;;;;4.89;98.48;100878.66;668494;29;1306;-85
2022/02/22 00:48:15;;;;;;;23.73;4.05;;;;;;;4.87;98.50;100869.97;669136;29;2280;-83
2022/02/22 00:48:36;;;;;;;18.37;4.03;;;;;;;4.83;98.55;100883.72;668831;29;1735;-83
2022/02/22 00:48:59;;;;;;;19.77;3.25;;;;;;;4.82;99.05;100873.31;667655;29;1182;-83
2022/02/22 00:49:19;;;;;;;20.90;3.45;;;;;;;4.88;99.37;100863.97;667844;29;1250;-83
2022/02/22 00:49:40;;;;;;;21.27;3.80;;;;;;;4.84;99.35;100879.41;669448;29;1344;-82
2022/02/22 00:50:01;;;;;;;19.67;3.97;;;;;;;4.83;99.26;100877.66;669967;29;4360;-82
2022/02/22 00:50:22;;;;;;;20.10;3.63;;;;;;;4.80;99.07;100862.91;668588;29;1179;-83
2022/02/22 00:50:45;;;;;;;21.35;3.40;;;;;;;4.76;99.59;100879.22;667919;29;1336;-82
2022/02/22 00:51:06;;;;;;;21.92;3.40;;;;;;;4.83;99.24;100864.69;663362;29;2990;-83
2022/02/22 00:51:26;;;;;;;20.70;3.93;;;;;;;4.91;99.56;100863.16;663825;29;1367;-83
2022/02/22 00:51:49;;;;;;;22.65;3.78;;;;;;;4.90;99.23;100888.19;668536;29;1508;-82
2022/02/22 00:52:10;;;;;;;21.13;3.38;;;;;;;4.84;99.40;100910.50;670320;29;1303;-82
2022/02/22 00:52:31;;;;;;;23.95;4.18;;;;;;;4.83;99.31;100878.53;667359;29;951;-82
2022/02/22 00:52:51;;;;;;;20.42;4.57;;;;;;;4.90;99.20;100869.16;662706;29;4308;-82
2022/02/22 00:53:12;;;;;;;20.30;3.93;;;;;;;4.93;98.79;100874.44;668815;29;1161;-82
2022/02/22 00:53:35;;;;;;;23.02;4.13;;;;;;;4.94;99.10;100870.97;666125;29;3135;-83
2022/02/22 00:53:56;;;;;;;21.17;3.93;;;;;;;4.93;98.81;100872.72;659062;29;1275;-82
2022/02/22 00:54:16;;;;;;;23.33;4.05;;;;;;;4.91;98.60;100871.78;663179;29;1488;-83
2022/02/22 00:54:37;;;;;;;23.87;4.63;;;;;;;4.96;99.20;100858.97;664141;29;1211;-83
2022/02/22 00:54:57;;;;;;;19.58;3.85;;;;;;;4.94;98.70;100858.94;664750;29;1460;-82
2022/02/22 00:55:35;;;;;;;17.97;3.70;;;;;;;4.91;98.58;100860.56;662999;29;1361;-83
2022/02/22 00:55:56;;;;;;;25.58;3.90;;;;;;;4.86;99.37;100868.25;668364;29;4324;-82
2022/02/22 00:56:16;;;;;;;23.25;4.30;;;;;;;4.80;99.63;100877.59;662681;29;1172;-83
2022/02/22 00:56:37;;;;;;;21.90;4.20;;;;;;;4.75;99.46;100872.31;664490;29;3723;-82
2022/02/22 00:56:57;;;;;;;17.75;3.40;;;;;;;4.75;99.88;100865.41;663367;29;2016;-82
2022/02/22 00:57:18;;;;;;;20.33;3.50;;;;;;;4.78;100.00;100885.34;662938;29;1798;-82
2022/02/22 00:57:41;;;;;;;19.52;3.40;;;;;;;4.77;100.00;100886.16;662922;29;822;-82
2022/02/22 00:58:02;;;;;;;20.40;3.85;;;;;;;4.81;99.71;100879.34;666334;29;1358;-83
2022/02/22 00:58:22;;;;;;;23.65;3.80;;;;;;;4.78;99.63;100875.84;667457;29;1198;-82
2022/02/22 00:58:43;;;;;;;21.10;4.13;;;;;;;4.81;99.11;100885.41;668788;29;4353;-82
2022/02/22 00:59:03;;;;;;;20.30;3.77;;;;;;;4.83;99.38;100862.13;668075;29;1470;-82
2022/02/22 00:59:27;;;;;;;21.20;4.20;;;;;;;4.85;99.14;100869.06;667726;29;3640;-83
2022/02/22 00:59:48;;;;;;;22.35;4.47;;;;;;;4.84;99.38;100869.06;664148;29;1251;-83
2022/02/22 01:00:11;;;;;;;22.10;3.70;;;;;;;4.84;99.23;100858.69;663221;29;3559;-83
2022/02/22 01:00:31;;;;;;;22.88;3.92;;;;;;;4.83;99.38;100880.25;661808;29;1245;-82
2022/02/22 01:00:52;;;;;;;23.13;3.58;;;;;;;4.82;99.28;100896.63;660699;29;1189;-84
2022/02/22 01:01:16;;;;;;;19.58;3.85;;;;;;;4.80;99.59;100893.13;660905;29;1346;-82
2022/02/22 01:01:37;;;;;;;21.67;3.33;;;;;;;4.83;99.21;100900.97;663706;29;1279;-81
2022/02/22 01:01:57;;;;;;;19.07;3.50;;;;;;;4.83;99.40;100875.97;665809;29;4391;-86
2022/02/22 01:02:18;;;;;;;19.17;3.40;;;;;;;4.88;98.83;100887.28;665190;29;3419;-84
2022/02/22 01:02:39;;;;;;;20.55;3.50;;;;;;;4.84;99.21;100890.63;668001;29;1445;-83
2022/02/22 01:02:59;;;;;;;20.63;3.50;;;;;;;4.88;98.82;100886.41;664176;29;1712;-82
2022/02/22 01:03:20;;;;;;;20.07;3.73;;;;;;;4.90;98.20;100884.72;663946;29;1290;-83
2022/02/22 01:03:44;;;;;;;24.80;4.35;;;;;;;4.82;98.71;100896.63;666189;29;1307;-83
2022/02/22 01:04:04;;;;;;;21.77;3.83;;;;;;;4.79;99.08;100897.44;666660;29;1428;-83
2022/02/22 01:04:25;;;;;;;24.37;4.13;;;;;;;4.73;99.80;100899.88;664756;29;1069;-82
2022/02/22 01:04:46;;;;;;;22.90;3.88;;;;;;;4.68;99.28;100904.06;666020;29;4347;-83
2022/02/22 01:05:07;;;;;;;19.98;4.07;;;;;;;4.68;99.77;100889.44;668981;29;3155;-82
2022/02/22 01:05:27;;;;;;;21.13;3.85;;;;;;;4.72;99.65;100886.06;665738;29;1967;-83
2022/02/22 01:05:48;;;;;;;19.80;4.00;;;;;;;4.71;100.00;100886.03;666622;29;2714;-82
2022/02/22 01:06:09;;;;;;;19.23;4.32;;;;;;;4.68;99.90;100899.78;665945;29;1470;-83
2022/02/22 01:06:29;;;;;;;25.50;5.00;;;;;;;4.65;100.00;100899.69;663514;29;934;-82
2022/02/22 01:06:50;;;;;;;23.40;3.70;;;;;;;4.64;100.00;100892.78;660335;29;1554;-83
2022/02/22 01:07:17;;;;;;;19.95;4.05;;;;;;;4.72;100.00;100891.25;663914;29;843;-83
2022/02/22 01:07:55;;;;;;;19.10;3.78;;;;;;;4.83;99.14;100896.69;665200;29;4318;-83
2022/02/22 01:08:17;;;;;;;22.70;3.83;;;;;;;4.83;98.85;100896.69;665290;29;1403;-82
2022/02/22 01:08:37;;;;;;;20.17;3.70;;;;;;;4.81;99.21;100900.94;667095;29;1280;-83
2022/02/22 01:08:59;;;;;;;18.17;3.57;;;;;;;4.75;99.42;100901.66;666145;29;1172;-82
2022/02/22 01:09:20;;;;;;;24.10;3.90;;;;;;;4.74;100.00;100899.91;663468;29;1286;-84
2022/02/22 01:09:41;;;;;;;21.97;3.37;;;;;;;4.70;99.64;100916.22;660495;29;1196;-82
2022/02/22 01:10:02;;;;;;;23.77;3.97;;;;;;;4.71;99.91;100902.44;663091;29;1597;-82
2022/02/22 01:10:23;;;;;;;19.90;4.18;;;;;;;4.71;99.79;100912.81;662361;29;1146;-82
2022/02/22 01:10:44;;;;;;;20.63;3.95;;;;;;;4.69;99.54;100891.16;664219;29;4375;-83
2022/02/22 01:11:05;;;;;;;21.07;4.30;;;;;;;4.71;100.00;100892.09;663281;29;4182;-83
2022/02/22 01:11:28;;;;;;;19.95;4.15;;;;;;;4.68;99.98;100915.31;663072;29;1393;-82
2022/02/22 01:11:49;;;;;;;21.83;3.72;;;;;;;4.65;100.00;100884.16;664788;29;1364;-84
2022/02/22 01:12:10;;;;;;;19.50;3.38;;;;;;;4.71;99.42;100909.34;669058;29;1715;-83
2022/02/22 01:12:31;;;;;;;25.45;4.15;;;;;;;4.67;99.49;100890.25;668737;29;894;-82
2022/02/22 01:12:51;;;;;;;21.98;4.55;;;;;;;4.64;99.67;100890.19;667710;29;1345;-82
2022/02/22 01:13:15;;;;;;;18.13;4.00;;;;;;;4.71;99.44;100884.31;667509;29;4932;-83
2022/02/22 01:13:35;;;;;;;21.98;4.03;;;;;;;4.72;99.16;100886.06;668072;29;1832;-82
2022/02/22 01:13:58;;;;;;;21.73;4.00;;;;;;;4.67;99.56;100913.56;668559;29;4333;-83
2022/02/22 01:14:19;;;;;;;22.23;4.28;;;;;;;4.70;99.79;100890.31;666068;29;1294;-81
2022/02/22 01:14:40;;;;;;;21.80;3.53;;;;;;;4.69;99.42;100909.28;664360;29;990;-82
2022/02/22 01:15:05;;;;;;;22.75;3.72;;;;;;;4.74;99.35;100892.16;664679;29;1358;-81
2022/02/22 01:15:33;;;;;;;20.67;3.55;;;;;;;4.75;99.63;100893.03;667267;29;862;-81
2022/02/22 01:15:53;;;;;;;21.05;3.63;;;;;;;4.73;99.42;100902.47;666810;29;1782;-82
2022/02/22 01:16:13;;;;;;;18.65;3.30;;;;;;;4.69;99.65;100896.34;668194;29;2836;-83
2022/02/22 01:16:34;;;;;;;20.80;3.50;;;;;;;4.69;99.58;100898.94;663423;29;1511;-81
2022/02/22 01:16:54;;;;;;;21.42;4.10;;;;;;;4.75;99.82;100917.22;662140;29;4317;-82
2022/02/22 01:17:15;;;;;;;25.10;4.67;;;;;;;4.66;100.00;100893.69;666986;29;4409;-82
2022/02/22 01:17:35;;;;;;;24.17;4.22;;;;;;;4.70;99.87;100924.00;667149;29;1130;-83
2022/02/22 01:17:58;;;;;;;24.07;3.90;;;;;;;4.65;99.65;100902.28;667980;29;1264;-82
2022/02/22 01:18:19;;;;;;;21.67;3.55;;;;;;;4.69;100.00;100914.47;665902;29;1053;-81
2022/02/22 01:18:42;;;;;;;18.60;3.58;;;;;;;4.64;100.00;100908.31;667552;29;1159;-82
2022/02/22 01:19:06;;;;;;;20.33;4.10;;;;;;;4.66;100.00;100901.44;668532;29;1327;-82
2022/02/22 01:19:29;;;;;;;21.15;3.80;;;;;;;4.72;100.00;100886.06;665792;29;2710;-81
2022/02/22 01:19:49;;;;;;;21.80;4.03;;;;;;;4.73;99.62;100892.97;665440;29;4348;-83
2022/02/22 01:20:10;;;;;;;21.13;3.90;;;;;;;4.71;99.88;100889.50;670658;29;1204;-83
2022/02/22 01:20:33;;;;;;;22.13;4.32;;;;;;;4.64;99.69;100892.78;668109;29;989;-83
2022/02/22 01:20:54;;;;;;;21.67;3.50;;;;;;;4.64;99.78;100891.91;663188;29;846;-82
2022/02/22 01:21:14;;;;;;;21.23;3.67;;;;;;;4.60;99.92;100922.91;662145;29;1247;-83
2022/02/22 01:21:36;;;;;;;21.73;4.20;;;;;;;4.68;99.53;100897.19;661718;29;1338;-82
2022/02/22 01:22:00;;;;;;;21.95;3.78;;;;;;;4.70;100.00;100898.09;663940;29;3175;-82
2022/02/22 01:22:20;;;;;;;18.17;3.60;;;;;;;4.69;100.00;100890.28;660681;29;2427;-83
2022/02/22 01:22:44;;;;;;;23.37;4.33;;;;;;;4.69;99.85;100903.25;662191;29;1421;-82
2022/02/22 01:23:05;;;;;;;23.50;4.90;;;;;;;4.60;100.00;100890.97;662008;29;5469;-83
2022/02/22 01:23:25;;;;;;;21.20;4.43;;;;;;;4.59;100.00;100896.97;665352;29;1263;-83
2022/02/22 01:23:45;;;;;;;23.90;4.93;;;;;;;4.55;100.00;100906.38;666207;29;1337;-83
2022/02/22 01:24:06;;;;;;;20.80;4.00;;;;;;;4.57;100.00;100891.78;670246;29;930;-83
2022/02/22 01:24:27;;;;;;;17.60;3.50;;;;;;;4.58;100.00;100897.81;667839;29;1693;-83
2022/02/22 01:24:47;;;;;;;19.00;3.17;;;;;;;4.60;100.00;100897.00;666605;29;3526;-82
2022/02/22 01:25:09;;;;;;;18.80;3.80;;;;;;;4.63;100.00;100888.44;664994;29;1389;-82
2022/02/22 01:25:38;;;;;;;24.65;4.07;;;;;;;4.71;99.81;100899.84;667595;29;1923;-82
2022/02/22 01:26:00;;;;;;;24.02;4.30;;;;;;;4.73;99.63;100892.13;668422;29;4381;-82
2022/02/22 01:26:20;;;;;;;24.38;3.83;;;;;;;4.71;99.09;100909.34;666521;29;992;-82
2022/02/22 01:26:40;;;;;;;23.13;3.93;;;;;;;4.69;99.54;100901.50;667308;29;1118;-82
2022/02/22 01:27:01;;;;;;;19.63;3.85;;;;;;;4.65;99.53;100889.34;663403;29;1231;-82
2022/02/22 01:27:22;;;;;;;19.77;4.05;;;;;;;4.60;99.64;100896.16;668918;29;1357;-82
2022/02/22 01:27:42;;;;;;;21.33;4.73;;;;;;;4.63;99.76;100903.97;665911;29;2428;-83
2022/02/22 01:28:03;;;;;;;23.27;4.70;;;;;;;4.66;99.79;100891.09;664518;29;1701;-82
2022/02/22 01:28:23;;;;;;;22.93;4.30;;;;;;;4.64;100.00;100899.66;658432;29;1839;-82
2022/02/22 01:28:44;;;;;;;18.77;3.70;;;;;;;4.65;100.00;100899.69;661699;29;4395;-83
2022/02/22 01:29:04;;;;;;;22.07;3.80;;;;;;;4.62;100.00;100898.75;662366;29;1259;-82
2022/02/22 01:29:26;;;;;;;23.00;3.83;;;;;;;4.60;100.00;100898.72;662504;29;1517;-82
2022/02/22 01:29:46;;;;;;;21.38;4.38;;;;;;;4.64;99.50;100910.03;666755;29;1257;-81
2022/02/22 01:30:08;;;;;;;23.55;4.63;;;;;;;4.67;99.67;100903.22;665930;29;1206;-83
2022/02/22 01:30:28;;;;;;;21.65;4.43;;;;;;;4.63;99.35;100901.38;663821;29;4193;-83
2022/02/22 01:30:48;;;;;;;24.35;4.38;;;;;;;4.59;100.00;100897.84;664192;29;1467;-84
2022/02/22 01:31:10;;;;;;;24.57;4.07;;;;;;;4.63;99.89;100898.78;670154;29;4183;-82
2022/02/22 01:31:30;;;;;;;22.40;4.35;;;;;;;4.63;99.78;100895.34;666260;29;1263;-83
2022/02/22 01:31:51;;;;;;;21.40;3.53;;;;;;;4.57;99.98;100890.91;666759;29;4325;-82
2022/02/22 01:32:11;;;;;;;24.45;4.47;;;;;;;4.53;100.00;100900.28;662951;29;1926;-82
2022/02/22 01:32:32;;;;;;;17.30;3.93;;;;;;;4.49;100.00;100901.06;663346;29;1027;-83
2022/02/22 01:32:54;;;;;;;20.17;4.32;;;;;;;4.49;100.00;100889.84;663110;29;1200;-83
2022/02/22 01:33:15;;;;;;;22.02;4.75;;;;;;;4.45;100.00;100903.56;666362;29;2325;-83
2022/02/22 01:33:35;;;;;;;21.27;4.70;;;;;;;4.39;100.00;100892.19;665569;29;3980;-83
2022/02/22 01:33:59;;;;;;;19.65;3.60;;;;;;;4.50;100.00;100901.94;660218;29;1679;-83
2022/02/22 01:34:19;;;;;;;15.98;3.40;;;;;;;4.57;100.00;100883.13;664353;29;1352;-83
2022/02/22 01:34:40;;;;;;;18.50;3.67;;;;;;;4.56;100.00;100904.69;664373;29;1267;-83
2022/02/22 01:35:06;;;;;;;18.10;3.57;;;;;;;4.48;100.00;100901.91;664979;29;4305;-83
2022/02/22 01:35:32;;;;;;;24.05;4.13;;;;;;;4.57;100.00;100896.09;665868;29;1327;-82
2022/02/22 01:35:52;;;;;;;24.27;3.83;;;;;;;4.53;100.00;100922.75;665794;29;1466;-82
2022/02/22 01:36:13;;;;;;;21.60;4.30;;;;;;;4.51;100.00;100906.28;665347;29;3074;-82
2022/02/22 01:36:33;;;;;;;25.85;4.25;;;;;;;4.50;100.00;100917.47;661334;29;1814;-82
2022/02/22 01:36:54;;;;;;;23.42;3.65;;;;;;;4.50;100.00;100915.75;664843;29;1284;-83
2022/02/22 01:37:15;;;;;;;21.83;4.03;;;;;;;4.48;100.00;100916.56;666942;29;1168;-82
2022/02/22 01:37:35;;;;;;;24.93;4.30;;;;;;;4.44;100.00;100925.97;664386;29;1330;-82
2022/02/22 01:37:56;;;;;;;19.23;3.42;;;;;;;4.41;100.00;100900.88;666960;29;4298;-83
2022/02/22 01:38:16;;;;;;;22.53;4.20;;;;;;;4.39;100.00;100901.69;667328;29;883;-82
2022/02/22 01:38:37;;;;;;;25.02;4.95;;;;;;;4.39;100.00;100923.25;667336;29;1168;-83
2022/02/22 01:38:57;;;;;;;18.63;3.70;;;;;;;4.34;100.00;100893.78;668376;29;3507;-82
2022/02/22 01:39:21;;;;;;;19.92;4.15;;;;;;;4.32;100.00;100911.03;666093;29;4256;-83
2022/02/22 01:39:41;;;;;;;22.17;4.57;;;;;;;4.34;100.00;100898.09;669753;29;1591;-83
2022/02/22 01:40:03;;;;;;;23.42;3.70;;;;;;;4.34;100.00;100919.69;667932;29;1059;-82
2022/02/22 01:40:26;;;;;;;23.08;3.75;;;;;;;4.31;100.00;100914.44;664821;29;1432;-82
2022/02/22 01:40:46;;;;;;;23.95;3.80;;;;;;;4.32;100.00;100900.66;662737;29;4344;-83
2022/02/22 01:41:07;;;;;;;21.37;4.27;;;;;;;4.31;100.00;100904.09;663931;29;937;-82
2022/02/22 01:41:29;;;;;;;22.02;3.60;;;;;;;4.29;100.00;100916.09;666669;29;2179;-83
2022/02/22 01:41:52;;;;;;;23.52;3.70;;;;;;;4.32;100.00;100910.13;663644;29;2281;-83
2022/02/22 01:42:15;;;;;;;21.02;4.28;;;;;;;4.29;100.00;100910.91;664756;29;1055;-83
2022/02/22 01:42:36;;;;;;;21.20;3.80;;;;;;;4.29;100.00;100910.91;668233;29;1464;-82
2022/02/22 01:42:57;;;;;;;21.55;3.90;;;;;;;4.28;100.00;100904.00;667334;29;1352;-83